Wetterstation Vordersexau
Wetterdaten: Woche 29.10.18 - 04.11.18 (KW44)
Datum Zeit Temp. A. Feuchte A. Luftdruck Regen Wind Richtung Taupunkt Windchill Windben
29.10.2018 00:00 4,1 C 82 % 1002,1 hPa 0,0 l/m 0,0 km/h N-NO 1,3 C 4,1 C 0,0 km/h
29.10.2018 01:00 4,0 C 83 % 1002,0 hPa 0,0 l/m 0,0 km/h N-NO 1,4 C 4,0 C 0,0 km/h
29.10.2018 02:00 4,0 C 84 % 1002,0 hPa 0,0 l/m 0,0 km/h N-NO 1,5 C 4,0 C 0,0 km/h
29.10.2018 03:00 3,9 C 84 % 1001,2 hPa 0,0 l/m 0,0 km/h O-NO 1,4 C 3,9 C 0,0 km/h
29.10.2018 04:00 3,9 C 84 % 1000,7 hPa 0,0 l/m 0,0 km/h O-NO 1,4 C 3,9 C 0,0 km/h
29.10.2018 05:00 3,9 C 84 % 999,8 hPa 0,0 l/m 0,0 km/h O-NO 1,4 C 3,9 C 0,0 km/h
29.10.2018 06:00 3,8 C 84 % 999,2 hPa 0,0 l/m 0,0 km/h O-NO 1,4 C 3,8 C 0,0 km/h
29.10.2018 07:00 3,8 C 85 % 998,2 hPa 0,0 l/m 0,0 km/h O 1,5 C 3,8 C 0,0 km/h
29.10.2018 08:00 4,4 C 84 % 997,2 hPa 0,0 l/m 0,0 km/h O 1,9 C 4,4 C 0,0 km/h
29.10.2018 09:00 5,6 C 83 % 996,3 hPa 0,0 l/m 0,0 km/h O 2,9 C 5,6 C 0,0 km/h
29.10.2018 10:00 6,4 C 78 % 996,3 hPa 0,0 l/m 0,0 km/h N-NW 2,8 C 6,4 C 0,0 km/h
29.10.2018 11:00 6,6 C 77 % 994,2 hPa 0,0 l/m 0,0 km/h N-NO 2,9 C 6,6 C 0,0 km/h
29.10.2018 12:00 6,9 C 76 % 992,8 hPa 0,0 l/m 0,0 km/h N-NO 3,0 C 6,9 C 0,0 km/h
29.10.2018 13:00 6,9 C 76 % 991,8 hPa 0,0 l/m 0,0 km/h N 3,0 C 6,9 C 0,0 km/h
29.10.2018 14:00 6,7 C 77 % 990,6 hPa 0,0 l/m 0,0 km/h NO 3,0 C 6,7 C 0,0 km/h
29.10.2018 15:00 6,5 C 78 % 988,9 hPa 0,0 l/m 0,0 km/h N 2,9 C 6,5 C 0,0 km/h
29.10.2018 16:00 6,3 C 80 % 989,1 hPa 0,0 l/m 0,0 km/h W 3,1 C 6,3 C 0,0 km/h
29.10.2018 17:00 5,8 C 82 % 987,5 hPa 0,0 l/m 3,9 km/h SW 3,0 C 5,8 C 2,2 km/h
29.10.2018 18:00 5,2 C 84 % 988,5 hPa 1,0 l/m 0,0 km/h O-NO 2,7 C 5,2 C 0,0 km/h
29.10.2018 19:00 4,8 C 84 % 983,6 hPa 1,0 l/m 0,6 km/h S-SW 2,3 C 4,8 C 0,4 km/h
29.10.2018 20:00 5,8 C 83 % 980,3 hPa 0,0 l/m 25,3 km/h S-SW 3,1 C -4,0 C 14,0 km/h
29.10.2018 21:00 5,3 C 83 % 983,5 hPa 0,5 l/m 15,6 km/h N-NO 2,7 C -0,9 C 8,6 km/h
29.10.2018 22:00 5,2 C 82 % 980,0 hPa 2,1 l/m 0,0 km/h SW 2,4 C 5,2 C 0,0 km/h
29.10.2018 23:00 5,1 C 80 % 981,2 hPa 0,0 l/m 0,0 km/h W-SW 1,9 C 5,1 C 0,0 km/h
30.10.2018 00:00 5,2 C 80 % 982,3 hPa 0,0 l/m 14,3 km/h SW 2,0 C -0,3 C 7,9 km/h
30.10.2018 01:00 5,4 C 79 % 983,9 hPa 0,0 l/m 8,4 km/h SW 2,1 C 3,7 C 4,7 km/h
30.10.2018 02:00 5,4 C 78 % 985,4 hPa 0,0 l/m 22,0 km/h S-SW 1,9 C -3,4 C 12,2 km/h
30.10.2018 03:00 5,6 C 77 % 987,5 hPa 0,0 l/m 27,2 km/h W-SW 1,9 C -4,8 C 15,1 km/h
30.10.2018 04:00 4,9 C 82 % 989,6 hPa 0,5 l/m 13,6 km/h S-SW 2,1 C -0,3 C 7,6 km/h
30.10.2018 05:00 4,9 C 85 % 990,3 hPa 0,0 l/m 38,2 km/h SW 2,6 C -8,3 C 21,2 km/h
30.10.2018 06:00 4,8 C 83 % 991,7 hPa 0,0 l/m 24,0 km/h SW 2,2 C -4,9 C 13,3 km/h
30.10.2018 07:00 3,8 C 83 % 993,8 hPa 0,0 l/m 27,9 km/h S 1,2 C -7,5 C 15,5 km/h
30.10.2018 08:00 3,3 C 84 % 994,8 hPa 0,5 l/m 1,9 km/h S 0,9 C 3,3 C 1,1 km/h
30.10.2018 09:00 3,9 C 85 % 995,9 hPa 0,5 l/m 19,4 km/h S 1,6 C -4,3 C 10,8 km/h
30.10.2018 10:00 5,3 C 82 % 996,5 hPa 0,0 l/m 35,6 km/h SW 2,5 C -7,2 C 19,8 km/h
30.10.2018 11:00 6,1 C 76 % 997,3 hPa 0,0 l/m 41,5 km/h S 2,2 C -7,1 C 23,0 km/h
30.10.2018 12:00 6,5 C 75 % 998,4 hPa 0,0 l/m 35,0 km/h S 2,4 C -5,4 C 19,4 km/h
30.10.2018 13:00 6,9 C 74 % 1000,0 hPa 0,0 l/m 35,6 km/h SW 2,6 C -4,9 C 19,8 km/h
30.10.2018 14:00 6,9 C 76 % 1001,1 hPa 0,0 l/m 24,6 km/h SW 3,0 C -2,2 C 13,7 km/h
30.10.2018 15:00 7,2 C 75 % 1002,7 hPa 0,0 l/m 20,7 km/h W-SW 3,1 C -0,6 C 11,5 km/h
30.10.2018 16:00 8,2 C 74 % 1003,4 hPa 0,0 l/m 32,4 km/h S-SW 3,8 C -2,4 C 18,0 km/h
30.10.2018 17:00 6,9 C 75 % 1004,0 hPa 0,0 l/m 9,7 km/h SW 2,8 C 4,4 C 5,4 km/h
30.10.2018 18:00 6,8 C 75 % 1005,3 hPa 0,0 l/m 25,3 km/h S 2,7 C -2,6 C 14,0 km/h
30.10.2018 19:00 6,8 C 73 % 1005,4 hPa 0,0 l/m 17,5 km/h S-SO 2,3 C 0,1 C 9,7 km/h
30.10.2018 20:00 6,8 C 73 % 1006,6 hPa 0,0 l/m 24,6 km/h S 2,3 C -2,4 C 13,7 km/h
30.10.2018 21:00 7,4 C 71 % 1007,5 hPa 0,0 l/m 18,1 km/h S 2,5 C 0,6 C 10,1 km/h
30.10.2018 22:00 7,4 C 71 % 1008,6 hPa 0,0 l/m 0,0 km/h S 2,5 C 7,4 C 0,0 km/h
30.10.2018 23:00 7,4 C 71 % 1009,4 hPa 0,0 l/m 14,9 km/h NO 2,5 C 2,0 C 8,3 km/h
31.10.2018 00:00 4,2 C 77 % 1010,2 hPa 0,0 l/m 0,0 km/h NO 0,5 C 4,2 C 0,0 km/h
31.10.2018 01:00 3,1 C 82 % 1010,6 hPa 0,0 l/m 0,0 km/h O-SO 0,3 C 3,1 C 0,0 km/h
31.10.2018 02:00 2,9 C 84 % 1010,5 hPa 0,0 l/m 0,0 km/h SO 0,5 C 2,9 C 0,0 km/h
31.10.2018 03:00 3,0 C 84 % 1010,4 hPa 0,0 l/m 0,0 km/h NO 0,6 C 3,0 C 0,0 km/h
31.10.2018 04:00 3,6 C 83 % 1010,4 hPa 0,0 l/m 0,0 km/h O-NO 1,0 C 3,6 C 0,0 km/h
31.10.2018 05:00 2,9 C 84 % 1010,6 hPa 0,0 l/m 0,0 km/h W 0,5 C 2,9 C 0,0 km/h
31.10.2018 06:00 2,9 C 84 % 1011,2 hPa 0,0 l/m 0,0 km/h W 0,5 C 2,9 C 0,0 km/h
31.10.2018 07:00 2,9 C 84 % 1011,7 hPa 0,0 l/m 0,0 km/h W 0,5 C 2,9 C 0,0 km/h
31.10.2018 08:00 4,1 C 85 % 1011,7 hPa 0,0 l/m 0,0 km/h W 1,8 C 4,1 C 0,0 km/h
31.10.2018 09:00 5,8 C 84 % 1011,2 hPa 0,0 l/m 0,0 km/h W 3,3 C 5,8 C 0,0 km/h
31.10.2018 10:00 6,4 C 83 % 1011,2 hPa 0,0 l/m 0,0 km/h W-SW 3,7 C 6,4 C 0,0 km/h
31.10.2018 11:00 6,5 C 82 % 1011,0 hPa 0,0 l/m 0,0 km/h S-SW 3,7 C 6,5 C 0,0 km/h
31.10.2018 12:00 7,2 C 82 % 1011,3 hPa 0,0 l/m 0,0 km/h W-NW 4,3 C 7,2 C 0,0 km/h
31.10.2018 13:00 7,6 C 82 % 1009,7 hPa 0,0 l/m 0,0 km/h W-NW 4,7 C 7,6 C 0,0 km/h
31.10.2018 14:00 7,9 C 82 % 1009,2 hPa 0,0 l/m 0,0 km/h W-SW 5,0 C 7,9 C 0,0 km/h
31.10.2018 15:00 7,6 C 82 % 1009,3 hPa 0,0 l/m 0,0 km/h S-SW 4,7 C 7,6 C 0,0 km/h
31.10.2018 16:00 7,1 C 82 % 1009,3 hPa 0,0 l/m 0,0 km/h S-SW 4,2 C 7,1 C 0,0 km/h
31.10.2018 17:00 6,4 C 84 % 1008,9 hPa 0,0 l/m 0,0 km/h S-SW 3,9 C 6,4 C 0,0 km/h
31.10.2018 18:00 5,2 C 84 % 1009,4 hPa 0,0 l/m 0,0 km/h S-SW 2,7 C 5,2 C 0,0 km/h
31.10.2018 19:00 4,1 C 84 % 1009,6 hPa 0,0 l/m 0,0 km/h S-SW 1,6 C 4,1 C 0,0 km/h
31.10.2018 20:00 3,5 C 84 % 1009,9 hPa 0,0 l/m 0,0 km/h S-SW 1,1 C 3,5 C 0,0 km/h
31.10.2018 21:00 2,9 C 84 % 1009,8 hPa 0,0 l/m 0,0 km/h S-SW 0,5 C 2,9 C 0,0 km/h
31.10.2018 22:00 3,0 C 83 % 1009,9 hPa 0,0 l/m 0,0 km/h S-SW 0,4 C 3,0 C 0,0 km/h
31.10.2018 23:00 3,1 C 82 % 1009,9 hPa 0,0 l/m 0,0 km/h S-SW 0,3 C 3,1 C 0,0 km/h
01.11.2018 00:00 3,5 C 81 % 1009,4 hPa 0,0 l/m 0,0 km/h S-SW 0,6 C 3,5 C 0,0 km/h
01.11.2018 01:00 3,3 C 81 % 1009,1 hPa 0,0 l/m 0,0 km/h O-NO 0,4 C 3,3 C 0,0 km/h
01.11.2018 02:00 2,9 C 81 % 1009,0 hPa 0,0 l/m 0,0 km/h O-NO -0,0 C 2,9 C 0,0 km/h
01.11.2018 03:00 2,8 C 81 % 1008,0 hPa 0,0 l/m 0,0 km/h O -0,1 C 2,8 C 0,0 km/h
01.11.2018 04:00 2,8 C 80 % 1008,7 hPa 0,0 l/m 0,0 km/h O -0,3 C 2,8 C 0,0 km/h
01.11.2018 05:00 3,0 C 80 % 1008,4 hPa 0,0 l/m 0,0 km/h O -0,1 C 3,0 C 0,0 km/h
01.11.2018 06:00 3,1 C 80 % 1008,8 hPa 0,0 l/m 0,0 km/h O -0,0 C 3,1 C 0,0 km/h
01.11.2018 07:00 3,4 C 79 % 1008,5 hPa 0,0 l/m 0,0 km/h O 0,1 C 3,4 C 0,0 km/h
01.11.2018 08:00 3,9 C 78 % 1009,7 hPa 0,0 l/m 0,0 km/h O 0,4 C 3,9 C 0,0 km/h
01.11.2018 09:00 4,9 C 77 % 1009,9 hPa 0,0 l/m 0,0 km/h O 1,2 C 4,9 C 0,0 km/h
01.11.2018 10:00 6,9 C 75 % 1009,2 hPa 0,0 l/m 0,0 km/h W 2,8 C 6,9 C 0,0 km/h
01.11.2018 11:00 9,6 C 82 % 1010,0 hPa 0,0 l/m 0,0 km/h SW 6,7 C 9,6 C 0,0 km/h
01.11.2018 12:00 11,5 C 82 % 1010,0 hPa 0,0 l/m 0,0 km/h W 8,5 C 11,5 C 0,0 km/h
01.11.2018 13:00 13,0 C 77 % 1009,6 hPa 0,0 l/m 0,0 km/h SO 9,1 C 13,0 C 0,0 km/h
01.11.2018 14:00 14,7 C 71 % 1009,2 hPa 0,0 l/m 0,0 km/h SO 9,5 C 14,7 C 0,0 km/h
01.11.2018 15:00 15,0 C 70 % 1009,2 hPa 0,0 l/m 0,0 km/h SO 9,6 C 15,0 C 0,0 km/h
01.11.2018 16:00 12,1 C 76 % 1009,6 hPa 0,0 l/m 0,0 km/h SO 8,0 C 12,1 C 0,0 km/h
01.11.2018 17:00 10,1 C 81 % 1010,7 hPa 0,0 l/m 0,0 km/h S-SW 7,0 C 10,1 C 0,0 km/h
01.11.2018 18:00 10,4 C 83 % 1013,1 hPa 1,0 l/m 29,2 km/h SO 7,6 C 1,4 C 16,2 km/h
01.11.2018 19:00 9,4 C 84 % 1012,7 hPa 3,1 l/m 8,4 km/h SO 6,8 C 7,9 C 4,7 km/h
01.11.2018 20:00 9,4 C 83 % 1013,4 hPa 0,0 l/m 8,4 km/h NO 6,7 C 7,9 C 4,7 km/h
01.11.2018 21:00 9,1 C 82 % 1014,4 hPa 0,0 l/m 7,8 km/h NO 6,2 C 8,1 C 4,3 km/h
01.11.2018 22:00 7,5 C 84 % 1014,7 hPa 0,0 l/m 0,0 km/h NO 5,0 C 7,5 C 0,0 km/h
01.11.2018 23:00 6,9 C 82 % 1014,8 hPa 0,0 l/m 0,0 km/h O-SO 4,0 C 6,9 C 0,0 km/h
02.11.2018 00:00 6,5 C 81 % 1015,4 hPa 0,0 l/m 0,0 km/h NO 3,5 C 6,5 C 0,0 km/h
02.11.2018 01:00 6,0 C 81 % 1015,4 hPa 0,0 l/m 0,0 km/h O-NO 3,0 C 6,0 C 0,0 km/h
02.11.2018 02:00 5,4 C 81 % 1015,3 hPa 0,0 l/m 0,0 km/h O-SO 2,4 C 5,4 C 0,0 km/h
02.11.2018 03:00 5,1 C 81 % 1016,0 hPa 0,0 l/m 0,0 km/h O-SO 2,1 C 5,1 C 0,0 km/h
02.11.2018 04:00 4,9 C 80 % 1016,4 hPa 0,0 l/m 0,0 km/h O 1,7 C 4,9 C 0,0 km/h
02.11.2018 05:00 4,7 C 80 % 1016,8 hPa 0,5 l/m 8,4 km/h O-NO 1,6 C 3,0 C 4,7 km/h
02.11.2018 06:00 4,7 C 79 % 1017,2 hPa 0,0 l/m 0,0 km/h O-NO 1,4 C 4,7 C 0,0 km/h
02.11.2018 07:00 4,5 C 79 % 1018,1 hPa 0,0 l/m 0,0 km/h O-NO 1,2 C 4,5 C 0,0 km/h
02.11.2018 08:00 4,9 C 79 % 1018,8 hPa 0,0 l/m 0,0 km/h O 1,6 C 4,9 C 0,0 km/h
02.11.2018 09:00 4,9 C 80 % 1019,2 hPa 0,0 l/m 0,0 km/h SO 1,7 C 4,9 C 0,0 km/h
02.11.2018 10:00 6,8 C 76 % 1019,5 hPa 0,0 l/m 0,0 km/h O-SO 2,9 C 6,8 C 0,0 km/h
02.11.2018 11:00 9,1 C 82 % 1019,3 hPa 0,0 l/m 0,0 km/h SO 6,2 C 9,1 C 0,0 km/h
02.11.2018 12:00 11,1 C 84 % 1019,1 hPa 0,0 l/m 0,0 km/h SO 8,5 C 11,1 C 0,0 km/h
02.11.2018 13:00 11,9 C 83 % 1019,5 hPa 0,0 l/m 0,0 km/h N-NW 9,1 C 11,9 C 0,0 km/h
02.11.2018 14:00 12,2 C 80 % 1019,3 hPa 0,0 l/m 0,0 km/h N-NW 8,9 C 12,2 C 0,0 km/h
02.11.2018 15:00 11,4 C 80 % 1020,1 hPa 0,0 l/m 0,0 km/h N-NW 8,1 C 11,4 C 0,0 km/h
02.11.2018 16:00 10,7 C 81 % 1020,4 hPa 0,0 l/m 0,0 km/h N-NW 7,6 C 10,7 C 0,0 km/h
02.11.2018 17:00 9,8 C 83 % 1021,1 hPa 0,0 l/m 0,0 km/h N-NW 7,1 C 9,8 C 0,0 km/h
02.11.2018 18:00 8,9 C 84 % 1022,3 hPa 0,0 l/m 0,0 km/h N-NW 6,3 C 8,9 C 0,0 km/h
02.11.2018 19:00 8,4 C 84 % 1022,7 hPa 0,0 l/m 0,0 km/h O-SO 5,9 C 8,4 C 0,0 km/h
02.11.2018 20:00 8,3 C 83 % 1023,1 hPa 0,0 l/m 0,0 km/h O-SO 5,6 C 8,3 C 0,0 km/h
02.11.2018 21:00 7,3 C 84 % 1023,7 hPa 0,0 l/m 0,0 km/h O-SO 4,8 C 7,3 C 0,0 km/h
02.11.2018 22:00 6,9 C 83 % 1023,8 hPa 0,0 l/m 0,0 km/h O-SO 4,2 C 6,9 C 0,0 km/h
02.11.2018 23:00 6,4 C 83 % 1023,8 hPa 0,0 l/m 0,0 km/h O-SO 3,7 C 6,4 C 0,0 km/h
03.11.2018 00:00 6,6 C 82 % 1023,6 hPa 0,0 l/m 0,0 km/h O-SO 3,8 C 6,6 C 0,0 km/h
03.11.2018 01:00 6,8 C 81 % 1023,3 hPa 0,0 l/m 0,0 km/h O-SO 3,8 C 6,8 C 0,0 km/h
03.11.2018 02:00 6,3 C 82 % 1023,3 hPa 0,0 l/m 0,0 km/h O-SO 3,5 C 6,3 C 0,0 km/h
03.11.2018 03:00 6,5 C 80 % 1022,9 hPa 0,0 l/m 0,0 km/h O-SO 3,3 C 6,5 C 0,0 km/h
03.11.2018 04:00 6,5 C 80 % 1023,0 hPa 0,0 l/m 0,0 km/h SO 3,3 C 6,5 C 0,0 km/h
03.11.2018 05:00 6,5 C 80 % 1023,0 hPa 0,0 l/m 0,0 km/h SO 3,3 C 6,5 C 0,0 km/h
03.11.2018 06:00 6,4 C 81 % 1023,1 hPa 0,0 l/m 0,0 km/h SO 3,4 C 6,4 C 0,0 km/h
03.11.2018 07:00 6,4 C 81 % 1023,3 hPa 0,0 l/m 0,0 km/h SO 3,4 C 6,4 C 0,0 km/h
03.11.2018 08:00 6,6 C 80 % 1023,6 hPa 0,0 l/m 0,0 km/h SO 3,4 C 6,6 C 0,0 km/h
03.11.2018 09:00 7,0 C 80 % 1023,6 hPa 0,0 l/m 0,0 km/h SO 3,8 C 7,0 C 0,0 km/h
03.11.2018 10:00 7,8 C 81 % 1023,1 hPa 0,0 l/m 0,0 km/h SO 4,7 C 7,8 C 0,0 km/h
03.11.2018 11:00 8,9 C 84 % 1022,6 hPa 0,0 l/m 0,0 km/h W 6,3 C 8,9 C 0,0 km/h
03.11.2018 12:00 11,2 C 83 % 1021,5 hPa 0,0 l/m 4,5 km/h W 8,4 C 11,2 C 2,5 km/h
03.11.2018 13:00 11,9 C 77 % 1020,7 hPa 0,0 l/m 7,1 km/h W-SW 8,0 C 11,4 C 4,0 km/h
03.11.2018 14:00 12,6 C 74 % 1020,2 hPa 0,0 l/m 8,4 km/h W 8,1 C 11,3 C 4,7 km/h
03.11.2018 15:00 11,9 C 73 % 1020,4 hPa 0,0 l/m 2,6 km/h SW 7,2 C 11,9 C 1,4 km/h
03.11.2018 16:00 10,9 C 76 % 1020,1 hPa 0,0 l/m 13,0 km/h SW 6,8 C 7,1 C 7,2 km/h
03.11.2018 17:00 10,3 C 78 % 1020,3 hPa 0,0 l/m 0,0 km/h SW 6,6 C 10,3 C 0,0 km/h
03.11.2018 18:00 9,9 C 80 % 1020,1 hPa 0,0 l/m 0,0 km/h SW 6,6 C 9,9 C 0,0 km/h
03.11.2018 19:00 9,6 C 81 % 1019,8 hPa 0,0 l/m 0,0 km/h SW 6,5 C 9,6 C 0,0 km/h
03.11.2018 20:00 9,5 C 82 % 1019,4 hPa 0,0 l/m 0,0 km/h SW 6,6 C 9,5 C 0,0 km/h
03.11.2018 21:00 9,3 C 83 % 1019,1 hPa 0,0 l/m 0,0 km/h SW 6,6 C 9,3 C 0,0 km/h
03.11.2018 22:00 9,0 C 83 % 1018,8 hPa 0,0 l/m 0,0 km/h SW 6,3 C 9,0 C 0,0 km/h
03.11.2018 23:00 8,8 C 84 % 1018,5 hPa 0,0 l/m 0,0 km/h SW 6,2 C 8,8 C 0,0 km/h
04.11.2018 00:00 8,4 C 84 % 1017,9 hPa 0,0 l/m 0,0 km/h SW 5,9 C 8,4 C 0,0 km/h
04.11.2018 01:00 8,0 C 84 % 1017,4 hPa 0,0 l/m 0,0 km/h SW 5,5 C 8,0 C 0,0 km/h
04.11.2018 02:00 7,9 C 84 % 1016,5 hPa 0,0 l/m 0,0 km/h SW 5,4 C 7,9 C 0,0 km/h
04.11.2018 03:00 7,1 C 84 % 1015,9 hPa 0,0 l/m 0,0 km/h SW 4,6 C 7,1 C 0,0 km/h
04.11.2018 04:00 5,9 C 83 % 1015,3 hPa 0,0 l/m 0,0 km/h SW 3,2 C 5,9 C 0,0 km/h
04.11.2018 05:00 5,5 C 84 % 1015,0 hPa 0,0 l/m 0,0 km/h SW 3,0 C 5,5 C 0,0 km/h
04.11.2018 06:00 4,4 C 83 % 1015,0 hPa 0,0 l/m 0,0 km/h SW 1,8 C 4,4 C 0,0 km/h
04.11.2018 07:00 4,5 C 82 % 1014,8 hPa 0,0 l/m 0,0 km/h SW 1,7 C 4,5 C 0,0 km/h
04.11.2018 08:00 4,9 C 80 % 1014,9 hPa 0,0 l/m 0,0 km/h SW 1,7 C 4,9 C 0,0 km/h
04.11.2018 09:00 6,2 C 80 % 1014,3 hPa 0,0 l/m 0,0 km/h SW 3,0 C 6,2 C 0,0 km/h
04.11.2018 10:00 9,3 C 79 % 1013,8 hPa 0,0 l/m 0,0 km/h W 5,8 C 9,3 C 0,0 km/h
04.11.2018 11:00 11,2 C 83 % 1013,2 hPa 0,0 l/m 0,0 km/h W-SW 8,4 C 11,2 C 0,0 km/h
04.11.2018 12:00 11,1 C 83 % 1012,1 hPa 0,0 l/m 0,0 km/h W-SW 8,3 C 11,1 C 0,0 km/h
04.11.2018 13:00 11,4 C 81 % 1011,3 hPa 0,0 l/m 0,0 km/h W-SW 8,3 C 11,4 C 0,0 km/h
04.11.2018 14:00 11,5 C 81 % 1010,7 hPa 0,0 l/m 0,0 km/h W-SW 8,4 C 11,5 C 0,0 km/h
04.11.2018 15:00 11,3 C 81 % 1010,4 hPa 0,0 l/m 0,0 km/h W-SW 8,2 C 11,3 C 0,0 km/h
04.11.2018 16:00 10,4 C 82 % 1009,6 hPa 0,0 l/m 0,0 km/h W-SW 7,5 C 10,4 C 0,0 km/h
04.11.2018 17:00 8,9 C 84 % 1009,3 hPa 0,0 l/m 0,0 km/h W-SW 6,3 C 8,9 C 0,0 km/h
04.11.2018 18:00 8,0 C 84 % 1008,9 hPa 0,0 l/m 0,0 km/h W-SW 5,5 C 8,0 C 0,0 km/h
04.11.2018 19:00 7,3 C 84 % 1009,0 hPa 0,0 l/m 0,0 km/h W-SW 4,8 C 7,3 C 0,0 km/h
04.11.2018 20:00 6,7 C 83 % 1008,6 hPa 0,0 l/m 0,0 km/h W-SW 4,0 C 6,7 C 0,0 km/h
04.11.2018 21:00 5,9 C 83 % 1008,3 hPa 0,0 l/m 0,0 km/h W-SW 3,2 C 5,9 C 0,0 km/h
04.11.2018 22:00 5,4 C 83 % 1008,4 hPa 0,0 l/m 0,0 km/h W-SW 2,7 C 5,4 C 0,0 km/h
04.11.2018 23:00 5,3 C 82 % 1008,2 hPa 0,0 l/m 0,0 km/h W-SW 2,5 C 5,3 C 0,0 km/h
Min-Datum _ 01.11.18 01.11.18 29.10.18 - 29.10.18 - 01.11.18 30.10.18 29.10.18
_ Min-Zeit 03:53 15:53 22:53 - 00:53 - 04:53 05:53 00:53
Minimum _ 2,8 C 70 % 980,0 hPa - 0,0 km/h - -0,3 C -8,3 C 0,0 km/h
Max-Datum _ 01.11.18 29.10.18 02.11.18 01.11.18 30.10.18 - 01.11.18 01.11.18 30.10.18
_ Max-Zeit 15:53 07:53 22:53 19:53 11:53 - 15:53 15:53 11:53
Maximum _ 15,0 C 85 % 1023,8 hPa 3,1 l/m 41,5 km/h
S
- 9,6 C 15,0 C 23,0 km/h
S
Durchschnitt _ 6,8 C 81 % 1009,2 hPa #10,9 l/m 4,0 km/h SW 3,7 C 5,4 C 2,2 km/h
www.sexauwetter.de